sensor_id;sensor_type;location;lat;lon;timestamp;P1;durP1;ratioP1;P2;durP2;ratioP2
18072;SDS011;9161;47.348;9.648;2023-04-28T00:02:43;6.40;;;2.70;;
18072;SDS011;9161;47.348;9.648;2023-04-28T00:07:48;6.70;;;2.27;;
18072;SDS011;9161;47.348;9.648;2023-04-28T00:12:51;3.13;;;1.80;;
18072;SDS011;9161;47.348;9.648;2023-04-28T00:17:53;3.43;;;1.53;;
18072;SDS011;9161;47.348;9.648;2023-04-28T00:22:56;5.53;;;1.47;;
18072;SDS011;9161;47.348;9.648;2023-04-28T00:28:00;1.93;;;1.40;;
18072;SDS011;9161;47.348;9.648;2023-04-28T00:33:02;2.47;;;1.60;;
18072;SDS011;9161;47.348;9.648;2023-04-28T00:38:05;3.03;;;1.67;;
18072;SDS011;9161;47.348;9.648;2023-04-28T00:43:08;3.20;;;1.73;;
18072;SDS011;9161;47.348;9.648;2023-04-28T00:48:11;2.50;;;1.50;;
18072;SDS011;9161;47.348;9.648;2023-04-28T00:53:14;2.97;;;1.10;;
18072;SDS011;9161;47.348;9.648;2023-04-28T00:58:17;1.70;;;1.20;;
18072;SDS011;9161;47.348;9.648;2023-04-28T01:03:20;1.77;;;1.03;;
18072;SDS011;9161;47.348;9.648;2023-04-28T01:08:22;1.80;;;1.17;;
18072;SDS011;9161;47.348;9.648;2023-04-28T01:13:29;4.03;;;1.53;;
18072;SDS011;9161;47.348;9.648;2023-04-28T01:18:32;5.13;;;2.40;;
18072;SDS011;9161;47.348;9.648;2023-04-28T01:23:35;5.37;;;2.30;;
18072;SDS011;9161;47.348;9.648;2023-04-28T01:28:38;5.50;;;2.53;;
18072;SDS011;9161;47.348;9.648;2023-04-28T01:33:40;3.30;;;2.20;;
18072;SDS011;9161;47.348;9.648;2023-04-28T01:38:43;3.20;;;1.17;;
18072;SDS011;9161;47.348;9.648;2023-04-28T01:43:46;2.37;;;1.10;;
18072;SDS011;9161;47.348;9.648;2023-04-28T01:48:49;2.87;;;1.03;;
18072;SDS011;9161;47.348;9.648;2023-04-28T01:53:50;2.57;;;1.27;;
18072;SDS011;9161;47.348;9.648;2023-04-28T01:58:54;4.17;;;1.37;;
18072;SDS011;9161;47.348;9.648;2023-04-28T02:03:56;4.80;;;1.70;;
18072;SDS011;9161;47.348;9.648;2023-04-28T02:08:59;2.37;;;1.20;;
18072;SDS011;9161;47.348;9.648;2023-04-28T02:14:02;3.87;;;1.00;;
18072;SDS011;9161;47.348;9.648;2023-04-28T02:19:04;3.73;;;1.13;;
18072;SDS011;9161;47.348;9.648;2023-04-28T02:24:07;1.40;;;0.80;;
18072;SDS011;9161;47.348;9.648;2023-04-28T02:29:11;2.23;;;0.97;;
18072;SDS011;9161;47.348;9.648;2023-04-28T02:34:13;4.57;;;1.47;;
18072;SDS011;9161;47.348;9.648;2023-04-28T02:39:16;3.50;;;2.07;;
18072;SDS011;9161;47.348;9.648;2023-04-28T02:44:21;4.30;;;2.17;;
18072;SDS011;9161;47.348;9.648;2023-04-28T02:49:24;3.57;;;1.80;;
18072;SDS011;9161;47.348;9.648;2023-04-28T02:54:25;3.20;;;1.60;;
18072;SDS011;9161;47.348;9.648;2023-04-28T02:59:29;3.30;;;1.10;;
18072;SDS011;9161;47.348;9.648;2023-04-28T03:04:31;4.20;;;1.30;;
18072;SDS011;9161;47.348;9.648;2023-04-28T03:09:33;3.50;;;1.40;;
18072;SDS011;9161;47.348;9.648;2023-04-28T03:14:37;5.10;;;1.67;;
18072;SDS011;9161;47.348;9.648;2023-04-28T03:19:39;5.23;;;1.90;;
18072;SDS011;9161;47.348;9.648;2023-04-28T03:24:41;5.23;;;2.10;;
18072;SDS011;9161;47.348;9.648;2023-04-28T03:29:44;3.90;;;2.20;;
18072;SDS011;9161;47.348;9.648;2023-04-28T03:34:47;4.00;;;2.20;;
18072;SDS011;9161;47.348;9.648;2023-04-28T03:39:48;5.33;;;2.43;;
18072;SDS011;9161;47.348;9.648;2023-04-28T03:44:52;5.60;;;2.37;;
18072;SDS011;9161;47.348;9.648;2023-04-28T03:49:54;4.33;;;2.80;;
18072;SDS011;9161;47.348;9.648;2023-04-28T03:54:57;7.80;;;2.33;;
18072;SDS011;9161;47.348;9.648;2023-04-28T04:00:01;5.57;;;2.77;;
18072;SDS011;9161;47.348;9.648;2023-04-28T04:05:03;5.30;;;2.80;;
18072;SDS011;9161;47.348;9.648;2023-04-28T04:10:07;6.13;;;2.63;;
18072;SDS011;9161;47.348;9.648;2023-04-28T04:15:11;3.87;;;2.43;;
18072;SDS011;9161;47.348;9.648;2023-04-28T04:20:13;7.67;;;3.47;;
18072;SDS011;9161;47.348;9.648;2023-04-28T04:25:15;6.60;;;3.13;;
18072;SDS011;9161;47.348;9.648;2023-04-28T04:30:18;6.50;;;2.83;;
18072;SDS011;9161;47.348;9.648;2023-04-28T04:35:21;5.83;;;2.47;;
18072;SDS011;9161;47.348;9.648;2023-04-28T04:40:23;3.90;;;2.50;;
18072;SDS011;9161;47.348;9.648;2023-04-28T04:45:27;8.63;;;2.70;;
18072;SDS011;9161;47.348;9.648;2023-04-28T04:50:29;6.40;;;3.33;;
18072;SDS011;9161;47.348;9.648;2023-04-28T04:55:32;6.77;;;3.40;;
18072;SDS011;9161;47.348;9.648;2023-04-28T05:00:44;12.67;;;5.33;;
18072;SDS011;9161;47.348;9.648;2023-04-28T05:06:02;8.80;;;4.10;;
18072;SDS011;9161;47.348;9.648;2023-04-28T05:11:21;6.90;;;4.30;;
18072;SDS011;9161;47.348;9.648;2023-04-28T05:16:38;8.90;;;4.20;;
18072;SDS011;9161;47.348;9.648;2023-04-28T05:21:40;8.60;;;4.97;;
18072;SDS011;9161;47.348;9.648;2023-04-28T05:26:43;11.07;;;5.07;;
18072;SDS011;9161;47.348;9.648;2023-04-28T05:31:46;9.83;;;4.13;;
18072;SDS011;9161;47.348;9.648;2023-04-28T05:36:49;7.80;;;4.57;;
18072;SDS011;9161;47.348;9.648;2023-04-28T05:41:53;10.60;;;5.40;;
18072;SDS011;9161;47.348;9.648;2023-04-28T05:46:56;12.10;;;5.30;;
18072;SDS011;9161;47.348;9.648;2023-04-28T05:51:58;7.40;;;4.33;;
18072;SDS011;9161;47.348;9.648;2023-04-28T05:57:01;7.17;;;4.23;;
18072;SDS011;9161;47.348;9.648;2023-04-28T06:02:04;8.33;;;4.63;;
18072;SDS011;9161;47.348;9.648;2023-04-28T06:07:07;8.73;;;5.30;;
18072;SDS011;9161;47.348;9.648;2023-04-28T06:12:10;13.67;;;5.27;;
18072;SDS011;9161;47.348;9.648;2023-04-28T06:17:13;8.00;;;4.40;;
18072;SDS011;9161;47.348;9.648;2023-04-28T06:22:19;10.17;;;4.87;;
18072;SDS011;9161;47.348;9.648;2023-04-28T06:27:21;8.87;;;4.60;;
18072;SDS011;9161;47.348;9.648;2023-04-28T06:32:24;7.30;;;3.47;;
18072;SDS011;9161;47.348;9.648;2023-04-28T06:37:26;6.80;;;3.40;;
18072;SDS011;9161;47.348;9.648;2023-04-28T06:42:29;7.13;;;4.03;;
18072;SDS011;9161;47.348;9.648;2023-04-28T06:47:33;7.23;;;3.50;;
18072;SDS011;9161;47.348;9.648;2023-04-28T06:52:40;5.37;;;2.90;;
18072;SDS011;9161;47.348;9.648;2023-04-28T06:57:42;5.43;;;3.50;;
18072;SDS011;9161;47.348;9.648;2023-04-28T07:02:46;5.30;;;3.00;;
18072;SDS011;9161;47.348;9.648;2023-04-28T07:07:49;6.23;;;4.23;;
18072;SDS011;9161;47.348;9.648;2023-04-28T07:12:54;5.13;;;3.30;;
18072;SDS011;9161;47.348;9.648;2023-04-28T07:17:58;10.87;;;4.90;;
18072;SDS011;9161;47.348;9.648;2023-04-28T07:23:00;13.43;;;6.60;;
18072;SDS011;9161;47.348;9.648;2023-04-28T07:28:04;8.40;;;4.47;;
18072;SDS011;9161;47.348;9.648;2023-04-28T07:33:08;28.30;;;4.37;;
18072;SDS011;9161;47.348;9.648;2023-04-28T07:38:11;4.83;;;3.60;;
18072;SDS011;9161;47.348;9.648;2023-04-28T07:43:13;7.17;;;3.60;;
18072;SDS011;9161;47.348;9.648;2023-04-28T07:48:17;3.77;;;2.80;;
18072;SDS011;9161;47.348;9.648;2023-04-28T07:53:20;7.43;;;3.13;;
18072;SDS011;9161;47.348;9.648;2023-04-28T07:58:22;6.43;;;3.00;;
18072;SDS011;9161;47.348;9.648;2023-04-28T08:03:25;8.33;;;3.13;;
18072;SDS011;9161;47.348;9.648;2023-04-28T08:08:28;5.23;;;3.10;;
18072;SDS011;9161;47.348;9.648;2023-04-28T08:13:31;4.60;;;3.47;;
18072;SDS011;9161;47.348;9.648;2023-04-28T08:18:34;4.23;;;2.70;;
18072;SDS011;9161;47.348;9.648;2023-04-28T08:23:37;4.87;;;2.70;;
18072;SDS011;9161;47.348;9.648;2023-04-28T08:28:39;4.47;;;2.43;;
18072;SDS011;9161;47.348;9.648;2023-04-28T08:33:42;4.90;;;2.80;;
18072;SDS011;9161;47.348;9.648;2023-04-28T08:38:47;12.10;;;5.70;;
18072;SDS011;9161;47.348;9.648;2023-04-28T08:43:49;14.13;;;7.90;;
18072;SDS011;9161;47.348;9.648;2023-04-28T08:48:54;10.40;;;6.80;;
18072;SDS011;9161;47.348;9.648;2023-04-28T08:54:01;9.10;;;5.07;;
18072;SDS011;9161;47.348;9.648;2023-04-28T08:59:07;10.33;;;5.30;;
18072;SDS011;9161;47.348;9.648;2023-04-28T09:04:11;7.53;;;4.90;;
18072;SDS011;9161;47.348;9.648;2023-04-28T09:09:18;5.20;;;3.30;;
18072;SDS011;9161;47.348;9.648;2023-04-28T09:14:21;7.50;;;3.60;;
18072;SDS011;9161;47.348;9.648;2023-04-28T09:19:27;5.67;;;3.43;;
18072;SDS011;9161;47.348;9.648;2023-04-28T09:24:35;6.13;;;3.13;;
18072;SDS011;9161;47.348;9.648;2023-04-28T09:29:50;4.60;;;3.10;;
18072;SDS011;9161;47.348;9.648;2023-04-28T09:34:54;4.80;;;2.70;;
18072;SDS011;9161;47.348;9.648;2023-04-28T09:39:57;3.77;;;2.37;;
18072;SDS011;9161;47.348;9.648;2023-04-28T09:45:06;4.97;;;2.43;;
18072;SDS011;9161;47.348;9.648;2023-04-28T09:50:12;5.50;;;3.00;;
18072;SDS011;9161;47.348;9.648;2023-04-28T09:55:16;4.53;;;2.67;;
18072;SDS011;9161;47.348;9.648;2023-04-28T10:00:19;6.80;;;2.60;;
18072;SDS011;9161;47.348;9.648;2023-04-28T10:05:24;4.33;;;2.20;;
18072;SDS011;9161;47.348;9.648;2023-04-28T10:10:27;4.23;;;2.27;;
18072;SDS011;9161;47.348;9.648;2023-04-28T10:15:29;4.23;;;2.40;;
18072;SDS011;9161;47.348;9.648;2023-04-28T10:20:34;3.27;;;2.33;;
18072;SDS011;9161;47.348;9.648;2023-04-28T10:25:36;3.57;;;2.07;;
18072;SDS011;9161;47.348;9.648;2023-04-28T10:30:39;3.90;;;2.43;;
18072;SDS011;9161;47.348;9.648;2023-04-28T10:35:44;6.00;;;2.70;;
18072;SDS011;9161;47.348;9.648;2023-04-28T10:40:48;6.10;;;2.87;;
18072;SDS011;9161;47.348;9.648;2023-04-28T10:45:58;7.53;;;2.83;;
18072;SDS011;9161;47.348;9.648;2023-04-28T10:51:22;4.87;;;3.50;;
18072;SDS011;9161;47.348;9.648;2023-04-28T10:56:33;6.23;;;3.43;;
18072;SDS011;9161;47.348;9.648;2023-04-28T11:01:35;9.40;;;5.50;;
18072;SDS011;9161;47.348;9.648;2023-04-28T11:06:41;4.07;;;2.50;;
18072;SDS011;9161;47.348;9.648;2023-04-28T11:12:03;4.63;;;2.47;;
18072;SDS011;9161;47.348;9.648;2023-04-28T11:17:09;5.90;;;2.80;;
18072;SDS011;9161;47.348;9.648;2023-04-28T11:22:17;4.90;;;2.40;;
18072;SDS011;9161;47.348;9.648;2023-04-28T11:27:22;3.17;;;2.10;;
18072;SDS011;9161;47.348;9.648;2023-04-28T11:32:25;5.40;;;3.03;;
18072;SDS011;9161;47.348;9.648;2023-04-28T11:37:30;5.77;;;3.57;;
18072;SDS011;9161;47.348;9.648;2023-04-28T11:42:32;4.67;;;3.50;;
18072;SDS011;9161;47.348;9.648;2023-04-28T11:47:34;4.60;;;3.37;;
18072;SDS011;9161;47.348;9.648;2023-04-28T11:52:48;6.00;;;3.10;;
18072;SDS011;9161;47.348;9.648;2023-04-28T12:03:21;8.20;;;5.03;;
18072;SDS011;9161;47.348;9.648;2023-04-28T12:08:27;7.20;;;5.13;;
18072;SDS011;9161;47.348;9.648;2023-04-28T12:13:30;8.00;;;4.33;;
18072;SDS011;9161;47.348;9.648;2023-04-28T12:18:32;7.13;;;4.67;;
18072;SDS011;9161;47.348;9.648;2023-04-28T12:23:36;9.40;;;5.53;;
18072;SDS011;9161;47.348;9.648;2023-04-28T12:28:41;7.33;;;3.90;;
18072;SDS011;9161;47.348;9.648;2023-04-28T12:33:43;5.77;;;3.40;;
18072;SDS011;9161;47.348;9.648;2023-04-28T12:38:50;4.77;;;3.20;;
18072;SDS011;9161;47.348;9.648;2023-04-28T12:43:52;5.47;;;3.70;;
18072;SDS011;9161;47.348;9.648;2023-04-28T12:48:55;5.33;;;3.70;;
18072;SDS011;9161;47.348;9.648;2023-04-28T12:53:58;8.70;;;4.33;;
18072;SDS011;9161;47.348;9.648;2023-04-28T12:59:01;6.60;;;4.27;;
18072;SDS011;9161;47.348;9.648;2023-04-28T13:04:04;6.70;;;3.70;;
18072;SDS011;9161;47.348;9.648;2023-04-28T13:09:08;6.47;;;3.63;;
18072;SDS011;9161;47.348;9.648;2023-04-28T13:14:11;5.90;;;3.20;;
18072;SDS011;9161;47.348;9.648;2023-04-28T13:19:13;6.63;;;3.73;;
18072;SDS011;9161;47.348;9.648;2023-04-28T13:24:18;5.73;;;4.20;;
18072;SDS011;9161;47.348;9.648;2023-04-28T13:29:20;8.63;;;4.97;;
18072;SDS011;9161;47.348;9.648;2023-04-28T13:34:23;7.10;;;4.00;;
18072;SDS011;9161;47.348;9.648;2023-04-28T13:39:26;9.27;;;5.80;;
18072;SDS011;9161;47.348;9.648;2023-04-28T13:44:28;6.93;;;4.30;;
18072;SDS011;9161;47.348;9.648;2023-04-28T13:49:31;6.93;;;4.13;;
18072;SDS011;9161;47.348;9.648;2023-04-28T13:54:35;4.30;;;3.20;;
18072;SDS011;9161;47.348;9.648;2023-04-28T13:59:37;4.43;;;3.27;;
18072;SDS011;9161;47.348;9.648;2023-04-28T14:04:39;6.73;;;3.70;;
18072;SDS011;9161;47.348;9.648;2023-04-28T14:09:49;4.77;;;3.33;;
18072;SDS011;9161;47.348;9.648;2023-04-28T14:14:51;4.33;;;2.70;;
18072;SDS011;9161;47.348;9.648;2023-04-28T14:19:53;6.40;;;3.73;;
18072;SDS011;9161;47.348;9.648;2023-04-28T14:24:57;5.27;;;3.43;;
18072;SDS011;9161;47.348;9.648;2023-04-28T14:30:00;7.53;;;4.07;;
18072;SDS011;9161;47.348;9.648;2023-04-28T14:35:03;7.23;;;4.20;;
18072;SDS011;9161;47.348;9.648;2023-04-28T14:40:08;7.40;;;3.20;;
18072;SDS011;9161;47.348;9.648;2023-04-28T14:45:11;3.10;;;2.20;;
18072;SDS011;9161;47.348;9.648;2023-04-28T14:50:14;2.77;;;2.33;;
18072;SDS011;9161;47.348;9.648;2023-04-28T14:55:19;6.53;;;2.97;;
18072;SDS011;9161;47.348;9.648;2023-04-28T15:00:22;6.37;;;3.33;;
18072;SDS011;9161;47.348;9.648;2023-04-28T15:05:25;4.80;;;2.50;;
18072;SDS011;9161;47.348;9.648;2023-04-28T15:10:31;5.30;;;3.90;;
18072;SDS011;9161;47.348;9.648;2023-04-28T15:15:39;7.53;;;3.70;;
18072;SDS011;9161;47.348;9.648;2023-04-28T15:20:42;6.13;;;3.83;;
18072;SDS011;9161;47.348;9.648;2023-04-28T15:25:47;5.87;;;3.73;;
18072;SDS011;9161;47.348;9.648;2023-04-28T15:30:53;8.73;;;4.40;;
18072;SDS011;9161;47.348;9.648;2023-04-28T15:35:56;7.30;;;3.97;;
18072;SDS011;9161;47.348;9.648;2023-04-28T15:41:00;6.40;;;3.73;;
18072;SDS011;9161;47.348;9.648;2023-04-28T15:46:03;6.80;;;4.00;;
18072;SDS011;9161;47.348;9.648;2023-04-28T15:51:08;11.00;;;5.83;;
18072;SDS011;9161;47.348;9.648;2023-04-28T15:56:12;8.47;;;5.97;;
18072;SDS011;9161;47.348;9.648;2023-04-28T16:01:18;14.20;;;9.33;;
18072;SDS011;9161;47.348;9.648;2023-04-28T16:06:21;10.07;;;6.67;;
18072;SDS011;9161;47.348;9.648;2023-04-28T16:11:26;7.37;;;4.97;;
18072;SDS011;9161;47.348;9.648;2023-04-28T16:16:29;7.87;;;4.80;;
18072;SDS011;9161;47.348;9.648;2023-04-28T16:21:31;7.80;;;4.90;;
18072;SDS011;9161;47.348;9.648;2023-04-28T16:26:34;8.07;;;6.80;;
18072;SDS011;9161;47.348;9.648;2023-04-28T16:31:37;8.00;;;5.30;;
18072;SDS011;9161;47.348;9.648;2023-04-28T16:36:39;4.03;;;3.40;;
18072;SDS011;9161;47.348;9.648;2023-04-28T16:41:43;6.20;;;3.83;;
18072;SDS011;9161;47.348;9.648;2023-04-28T16:46:45;8.30;;;5.03;;
18072;SDS011;9161;47.348;9.648;2023-04-28T16:51:54;7.50;;;5.27;;
18072;SDS011;9161;47.348;9.648;2023-04-28T16:56:59;5.63;;;3.40;;
18072;SDS011;9161;47.348;9.648;2023-04-28T17:02:03;15.67;;;8.10;;
18072;SDS011;9161;47.348;9.648;2023-04-28T17:07:06;14.43;;;9.50;;
18072;SDS011;9161;47.348;9.648;2023-04-28T17:12:09;14.07;;;8.97;;
18072;SDS011;9161;47.348;9.648;2023-04-28T17:17:12;14.23;;;8.37;;
18072;SDS011;9161;47.348;9.648;2023-04-28T17:22:14;9.90;;;6.83;;
18072;SDS011;9161;47.348;9.648;2023-04-28T17:27:17;10.13;;;7.27;;
18072;SDS011;9161;47.348;9.648;2023-04-28T17:32:20;11.87;;;8.37;;
18072;SDS011;9161;47.348;9.648;2023-04-28T17:37:22;13.17;;;7.13;;
18072;SDS011;9161;47.348;9.648;2023-04-28T17:42:27;10.60;;;7.60;;
18072;SDS011;9161;47.348;9.648;2023-04-28T17:47:31;10.70;;;7.67;;
18072;SDS011;9161;47.348;9.648;2023-04-28T17:52:33;9.83;;;6.33;;
18072;SDS011;9161;47.348;9.648;2023-04-28T17:57:37;6.53;;;4.47;;
18072;SDS011;9161;47.348;9.648;2023-04-28T18:02:39;14.40;;;8.63;;
18072;SDS011;9161;47.348;9.648;2023-04-28T18:07:42;14.80;;;9.53;;
18072;SDS011;9161;47.348;9.648;2023-04-28T18:12:46;11.73;;;8.33;;
18072;SDS011;9161;47.348;9.648;2023-04-28T18:17:52;9.23;;;6.30;;
18072;SDS011;9161;47.348;9.648;2023-04-28T18:22:56;6.43;;;4.37;;
18072;SDS011;9161;47.348;9.648;2023-04-28T18:28:00;5.77;;;4.27;;
18072;SDS011;9161;47.348;9.648;2023-04-28T18:33:06;7.27;;;4.80;;
18072;SDS011;9161;47.348;9.648;2023-04-28T18:38:12;5.53;;;3.70;;
18072;SDS011;9161;47.348;9.648;2023-04-28T18:43:15;11.43;;;4.13;;
18072;SDS011;9161;47.348;9.648;2023-04-28T18:48:20;7.23;;;4.27;;
18072;SDS011;9161;47.348;9.648;2023-04-28T18:53:22;6.33;;;3.97;;
18072;SDS011;9161;47.348;9.648;2023-04-28T18:58:27;7.37;;;4.63;;
18072;SDS011;9161;47.348;9.648;2023-04-28T19:03:33;6.53;;;3.93;;
18072;SDS011;9161;47.348;9.648;2023-04-28T19:08:37;7.73;;;5.53;;
18072;SDS011;9161;47.348;9.648;2023-04-28T19:13:43;9.33;;;5.93;;
18072;SDS011;9161;47.348;9.648;2023-04-28T19:18:47;8.53;;;5.57;;
18072;SDS011;9161;47.348;9.648;2023-04-28T19:23:50;8.63;;;4.50;;
18072;SDS011;9161;47.348;9.648;2023-04-28T19:28:55;4.63;;;3.53;;
18072;SDS011;9161;47.348;9.648;2023-04-28T19:33:57;4.07;;;2.33;;
18072;SDS011;9161;47.348;9.648;2023-04-28T19:39:01;3.70;;;1.80;;
18072;SDS011;9161;47.348;9.648;2023-04-28T19:44:06;2.27;;;1.70;;
18072;SDS011;9161;47.348;9.648;2023-04-28T19:49:10;1.93;;;1.40;;
18072;SDS011;9161;47.348;9.648;2023-04-28T19:54:14;3.17;;;1.37;;
18072;SDS011;9161;47.348;9.648;2023-04-28T19:59:18;3.07;;;1.90;;
18072;SDS011;9161;47.348;9.648;2023-04-28T20:04:21;3.97;;;2.10;;
18072;SDS011;9161;47.348;9.648;2023-04-28T20:09:24;5.33;;;2.53;;
18072;SDS011;9161;47.348;9.648;2023-04-28T20:14:29;4.97;;;1.93;;
18072;SDS011;9161;47.348;9.648;2023-04-28T20:19:32;3.20;;;1.90;;
18072;SDS011;9161;47.348;9.648;2023-04-28T20:24:36;4.63;;;2.03;;
18072;SDS011;9161;47.348;9.648;2023-04-28T20:29:40;3.93;;;2.10;;
18072;SDS011;9161;47.348;9.648;2023-04-28T20:34:44;2.73;;;2.03;;
18072;SDS011;9161;47.348;9.648;2023-04-28T20:39:47;3.80;;;2.20;;
18072;SDS011;9161;47.348;9.648;2023-04-28T20:44:51;4.77;;;2.60;;
18072;SDS011;9161;47.348;9.648;2023-04-28T20:49:53;4.07;;;2.70;;
18072;SDS011;9161;47.348;9.648;2023-04-28T20:54:55;7.57;;;3.30;;
18072;SDS011;9161;47.348;9.648;2023-04-28T20:59:59;2.70;;;2.03;;
18072;SDS011;9161;47.348;9.648;2023-04-28T21:05:03;3.03;;;1.50;;
18072;SDS011;9161;47.348;9.648;2023-04-28T21:10:06;2.33;;;1.13;;
18072;SDS011;9161;47.348;9.648;2023-04-28T21:15:11;2.57;;;1.33;;
18072;SDS011;9161;47.348;9.648;2023-04-28T21:20:14;3.17;;;1.43;;
18072;SDS011;9161;47.348;9.648;2023-04-28T21:25:16;3.27;;;1.87;;
18072;SDS011;9161;47.348;9.648;2023-04-28T21:30:23;2.40;;;2.13;;
18072;SDS011;9161;47.348;9.648;2023-04-28T21:35:25;2.10;;;1.30;;
18072;SDS011;9161;47.348;9.648;2023-04-28T21:40:27;2.27;;;1.40;;
18072;SDS011;9161;47.348;9.648;2023-04-28T21:45:32;2.80;;;2.10;;
18072;SDS011;9161;47.348;9.648;2023-04-28T21:50:34;4.57;;;2.60;;
18072;SDS011;9161;47.348;9.648;2023-04-28T21:55:36;5.33;;;3.50;;
18072;SDS011;9161;47.348;9.648;2023-04-28T22:00:41;4.33;;;2.73;;
18072;SDS011;9161;47.348;9.648;2023-04-28T22:05:45;5.07;;;3.57;;
18072;SDS011;9161;47.348;9.648;2023-04-28T22:10:48;5.73;;;4.53;;
18072;SDS011;9161;47.348;9.648;2023-04-28T22:15:52;7.97;;;5.40;;
18072;SDS011;9161;47.348;9.648;2023-04-28T22:20:55;8.87;;;5.93;;
18072;SDS011;9161;47.348;9.648;2023-04-28T22:25:57;7.03;;;5.17;;
18072;SDS011;9161;47.348;9.648;2023-04-28T22:31:01;9.33;;;5.23;;
18072;SDS011;9161;47.348;9.648;2023-04-28T22:36:04;7.43;;;4.97;;
18072;SDS011;9161;47.348;9.648;2023-04-28T22:41:06;8.00;;;4.57;;
18072;SDS011;9161;47.348;9.648;2023-04-28T22:46:10;5.87;;;4.10;;
18072;SDS011;9161;47.348;9.648;2023-04-28T22:51:13;7.83;;;4.77;;
18072;SDS011;9161;47.348;9.648;2023-04-28T22:56:16;10.03;;;5.33;;
18072;SDS011;9161;47.348;9.648;2023-04-28T23:01:19;7.10;;;4.03;;
18072;SDS011;9161;47.348;9.648;2023-04-28T23:06:22;6.27;;;3.13;;
18072;SDS011;9161;47.348;9.648;2023-04-28T23:11:27;3.37;;;2.40;;
18072;SDS011;9161;47.348;9.648;2023-04-28T23:16:31;2.00;;;1.20;;
18072;SDS011;9161;47.348;9.648;2023-04-28T23:21:33;2.50;;;1.40;;
18072;SDS011;9161;47.348;9.648;2023-04-28T23:26:35;2.13;;;0.50;;
18072;SDS011;9161;47.348;9.648;2023-04-28T23:31:39;1.53;;;1.07;;
18072;SDS011;9161;47.348;9.648;2023-04-28T23:36:41;1.83;;;0.90;;
18072;SDS011;9161;47.348;9.648;2023-04-28T23:41:44;3.97;;;1.40;;
18072;SDS011;9161;47.348;9.648;2023-04-28T23:46:47;0.70;;;0.43;;
18072;SDS011;9161;47.348;9.648;2023-04-28T23:51:49;1.37;;;0.67;;
18072;SDS011;9161;47.348;9.648;2023-04-28T23:56:52;1.20;;;0.80;;
